createdAt,value
2022-11-16T00:01:40.176Z,3.77
2022-11-16T00:04:07.888Z,4.17
2022-11-16T00:06:35.671Z,4.03
2022-11-16T00:09:21.555Z,4.47
2022-11-16T00:11:51.096Z,3.73
2022-11-16T00:14:19.214Z,4.60
2022-11-16T00:16:48.382Z,4.57
2022-11-16T00:19:16.078Z,4.43
2022-11-16T00:21:44.064Z,4.43
2022-11-16T00:24:14.115Z,5.57
2022-11-16T00:26:42.095Z,4.93
2022-11-16T00:29:14.855Z,4.23
2022-11-16T00:31:42.619Z,4.80
2022-11-16T00:34:11.606Z,5.23
2022-11-16T00:36:39.535Z,3.90
2022-11-16T00:39:07.570Z,4.63
2022-11-16T00:41:35.230Z,5.00
2022-11-16T00:44:03.056Z,4.73
2022-11-16T00:46:30.740Z,4.30
2022-11-16T00:48:58.369Z,4.33
2022-11-16T00:51:27.428Z,5.13
2022-11-16T00:53:55.428Z,4.40
2022-11-16T00:56:23.663Z,4.60
2022-11-16T00:58:51.496Z,5.03
2022-11-16T01:01:19.627Z,4.80
2022-11-16T01:03:47.717Z,4.73
2022-11-16T01:06:16.367Z,4.80
2022-11-16T01:08:45.746Z,4.40
2022-11-16T01:11:33.121Z,4.63
2022-11-16T01:14:03.247Z,5.20
2022-11-16T01:16:31.433Z,4.57
2022-11-16T01:18:59.630Z,4.90
2022-11-16T01:21:27.298Z,5.47
2022-11-16T01:23:58.032Z,5.33
2022-11-16T01:26:25.891Z,4.37
2022-11-16T01:28:54.105Z,5.73
2022-11-16T01:31:22.278Z,4.80
2022-11-16T01:33:52.231Z,4.93
2022-11-16T01:36:23.789Z,4.27
2022-11-16T01:38:51.684Z,4.70
2022-11-16T01:41:25.650Z,5.53
2022-11-16T01:43:59.149Z,4.90
2022-11-16T01:46:32.246Z,4.90
2022-11-16T01:49:06.018Z,4.27
2022-11-16T01:51:34.985Z,4.03
2022-11-16T01:54:06.722Z,4.83
2022-11-16T01:56:39.099Z,4.73
2022-11-16T01:59:21.247Z,4.90
2022-11-16T02:01:50.181Z,4.63
2022-11-16T02:04:19.429Z,5.33
2022-11-16T02:07:03.006Z,4.63
2022-11-16T02:09:59.045Z,4.00
2022-11-16T02:12:53.645Z,4.90
2022-11-16T02:15:31.433Z,4.40
2022-11-16T02:18:25.783Z,4.40
2022-11-16T02:21:15.683Z,4.20
2022-11-16T02:24:12.202Z,4.90
2022-11-16T02:26:57.269Z,4.93
2022-11-16T02:29:33.250Z,6.20
2022-11-16T02:32:04.614Z,4.77
2022-11-16T02:34:38.482Z,4.70
2022-11-16T02:37:10.612Z,5.47
2022-11-16T02:39:40.599Z,5.30
2022-11-16T02:42:17.755Z,3.70
2022-11-16T02:44:50.854Z,5.77
2022-11-16T02:47:23.287Z,5.10
2022-11-16T02:49:57.696Z,3.60
2022-11-16T02:52:28.320Z,2.90
2022-11-16T02:54:56.324Z,2.33
2022-11-16T02:57:40.089Z,3.00
2022-11-16T03:00:19.319Z,2.73
2022-11-16T03:02:52.914Z,3.10
2022-11-16T03:05:31.916Z,2.70
2022-11-16T03:08:07.755Z,2.17
2022-11-16T03:10:55.328Z,2.43
2022-11-16T03:13:25.594Z,2.33
2022-11-16T03:15:57.100Z,1.70
2022-11-16T03:18:28.955Z,2.13
2022-11-16T03:21:14.742Z,1.93
2022-11-16T03:23:46.279Z,1.60
2022-11-16T03:26:17.958Z,1.60
2022-11-16T03:28:56.118Z,1.87
2022-11-16T03:31:30.705Z,1.63
2022-11-16T03:34:04.569Z,1.17
2022-11-16T03:36:36.705Z,1.87
2022-11-16T03:39:10.055Z,2.10
2022-11-16T03:41:42.921Z,1.57
2022-11-16T03:44:13.534Z,2.00
2022-11-16T03:46:44.162Z,2.43
2022-11-16T03:49:13.601Z,2.30
2022-11-16T03:51:42.104Z,2.70
2022-11-16T03:54:09.738Z,2.60
2022-11-16T03:56:37.427Z,3.03
2022-11-16T03:59:05.713Z,2.37
2022-11-16T04:01:33.963Z,2.30
2022-11-16T04:04:02.937Z,2.10
2022-11-16T04:06:44.618Z,2.17
2022-11-16T04:09:29.834Z,2.00
2022-11-16T04:12:15.027Z,2.73
2022-11-16T04:15:01.423Z,2.03
2022-11-16T04:17:48.677Z,2.43
2022-11-16T04:20:35.413Z,2.27
2022-11-16T04:23:24.283Z,2.10
2022-11-16T04:25:53.649Z,1.63
2022-11-16T04:28:24.081Z,1.70
2022-11-16T04:31:16.231Z,1.37
2022-11-16T04:34:08.708Z,1.40
2022-11-16T04:36:55.944Z,1.80
2022-11-16T04:39:23.704Z,2.40
2022-11-16T04:42:08.950Z,1.80
2022-11-16T04:44:55.039Z,2.10
2022-11-16T04:47:25.366Z,2.20
2022-11-16T04:49:53.014Z,1.77
2022-11-16T04:52:22.879Z,1.47
2022-11-16T04:54:51.859Z,1.60
2022-11-16T04:57:19.524Z,2.20
2022-11-16T04:59:49.452Z,1.47
2022-11-16T05:02:17.444Z,1.67
2022-11-16T05:04:50.300Z,1.83
2022-11-16T05:07:19.388Z,1.80
2022-11-16T05:09:50.137Z,2.00
2022-11-16T05:12:20.319Z,2.07
2022-11-16T05:14:51.387Z,1.73
2022-11-16T05:17:20.566Z,1.87
2022-11-16T05:20:06.099Z,1.47
2022-11-16T05:22:39.256Z,1.80
2022-11-16T05:25:10.604Z,2.10
2022-11-16T05:27:39.127Z,2.33
2022-11-16T05:30:08.920Z,2.20
2022-11-16T05:32:36.594Z,2.10
2022-11-16T05:35:05.870Z,1.47
2022-11-16T05:37:33.851Z,1.90
2022-11-16T05:40:02.751Z,1.50
2022-11-16T05:42:52.966Z,1.50
2022-11-16T05:45:22.053Z,1.20
2022-11-16T05:47:50.400Z,1.33
2022-11-16T05:50:19.236Z,1.63
2022-11-16T05:53:00.655Z,1.70
2022-11-16T05:55:28.567Z,1.50
2022-11-16T05:57:58.208Z,1.27
2022-11-16T06:00:26.011Z,1.27
2022-11-16T06:02:54.926Z,1.20
2022-11-16T06:05:27.797Z,1.53
2022-11-16T06:07:56.900Z,1.13
2022-11-16T06:10:24.751Z,1.30
2022-11-16T06:12:54.129Z,1.40
2022-11-16T06:15:23.327Z,1.50
2022-11-16T06:17:51.071Z,1.60
2022-11-16T06:20:18.780Z,1.60
2022-11-16T06:22:47.015Z,1.70
2022-11-16T06:25:14.968Z,2.10
2022-11-16T06:27:44.853Z,2.40
2022-11-16T06:30:17.223Z,3.20
2022-11-16T06:32:46.904Z,4.80
2022-11-16T06:35:15.533Z,3.17
2022-11-16T06:37:43.806Z,2.93
2022-11-16T06:40:12.477Z,3.83
2022-11-16T06:42:44.154Z,3.67
2022-11-16T06:45:14.176Z,3.60
2022-11-16T06:47:48.348Z,5.10
2022-11-16T06:50:19.156Z,4.33
2022-11-16T06:52:48.316Z,5.53
2022-11-16T06:55:17.390Z,4.70
2022-11-16T06:57:46.221Z,4.63
2022-11-16T07:00:15.592Z,4.50
2022-11-16T07:02:43.362Z,4.27
2022-11-16T07:05:17.369Z,3.60
2022-11-16T07:07:46.591Z,5.27
2022-11-16T07:10:15.073Z,3.63
2022-11-16T07:12:43.787Z,3.70
2022-11-16T07:15:12.452Z,4.63
2022-11-16T07:17:42.905Z,3.67
2022-11-16T07:20:11.990Z,4.07
2022-11-16T07:22:41.769Z,3.80
2022-11-16T07:25:13.659Z,3.80
2022-11-16T07:27:41.808Z,3.58
2022-11-16T07:30:10.814Z,3.53
2022-11-16T07:32:47.710Z,3.47
2022-11-16T07:35:28.202Z,2.93
2022-11-16T07:37:57.214Z,2.93
2022-11-16T07:40:24.950Z,3.30
2022-11-16T07:42:53.212Z,3.20
2022-11-16T07:45:20.840Z,2.40
2022-11-16T07:47:54.263Z,2.83
2022-11-16T07:50:41.935Z,2.73
2022-11-16T07:53:11.111Z,2.93
2022-11-16T07:55:40.285Z,2.17
2022-11-16T07:58:08.942Z,2.33
2022-11-16T08:00:37.120Z,2.80
2022-11-16T08:03:14.108Z,2.47
2022-11-16T08:05:42.014Z,2.97
2022-11-16T08:08:11.550Z,2.53
2022-11-16T08:10:39.496Z,3.10
2022-11-16T08:13:08.632Z,3.00
2022-11-16T08:15:36.305Z,3.47
2022-11-16T08:18:07.155Z,2.30
2022-11-16T08:20:36.520Z,2.30
2022-11-16T08:23:04.492Z,2.30
2022-11-16T08:25:36.546Z,2.90
2022-11-16T08:28:04.671Z,3.03
2022-11-16T08:30:33.055Z,2.30
2022-11-16T08:33:01.922Z,2.00
2022-11-16T08:35:29.818Z,1.90
2022-11-16T08:37:58.687Z,2.23
2022-11-16T08:40:29.210Z,2.60
2022-11-16T08:42:59.208Z,2.03
2022-11-16T08:45:27.936Z,2.23
2022-11-16T08:48:03.526Z,3.50
2022-11-16T08:50:55.560Z,2.60
2022-11-16T08:53:22.341Z,2.90
2022-11-16T08:55:50.116Z,2.50
2022-11-16T08:58:20.201Z,2.17
2022-11-16T09:00:48.099Z,1.90
2022-11-16T09:03:15.766Z,1.80
2022-11-16T09:05:43.452Z,2.70
2022-11-16T09:08:11.870Z,1.57
2022-11-16T09:10:39.751Z,2.30
2022-11-16T09:13:07.469Z,1.97
2022-11-16T09:15:36.466Z,1.40
2022-11-16T09:18:06.793Z,1.90
2022-11-16T09:20:34.594Z,1.87
2022-11-16T09:23:02.630Z,2.30
2022-11-16T09:25:30.372Z,1.67
2022-11-16T09:27:58.286Z,1.70
2022-11-16T09:30:26.072Z,1.90
2022-11-16T09:32:55.176Z,1.30
2022-11-16T09:35:22.981Z,1.87
2022-11-16T09:37:50.812Z,1.80
2022-11-16T09:40:18.779Z,1.63
2022-11-16T09:43:02.122Z,2.47
2022-11-16T09:45:38.858Z,1.93
2022-11-16T09:48:13.499Z,1.70
2022-11-16T09:50:45.695Z,1.70
2022-11-16T09:53:33.655Z,2.00
2022-11-16T09:56:05.218Z,1.90
2022-11-16T09:58:40.974Z,1.90
2022-11-16T10:01:22.043Z,2.50
2022-11-16T10:03:55.174Z,1.93
2022-11-16T10:06:28.720Z,2.20
2022-11-16T10:08:57.583Z,1.97
2022-11-16T10:11:58.031Z,2.53
2022-11-16T10:14:53.298Z,2.70
2022-11-16T10:17:29.134Z,2.20
2022-11-16T10:20:08.859Z,1.40
2022-11-16T10:22:46.262Z,1.37
2022-11-16T10:25:17.588Z,2.80
2022-11-16T10:28:02.503Z,2.13
2022-11-16T10:30:40.311Z,1.40
2022-11-16T10:33:14.438Z,1.57
2022-11-16T10:35:47.945Z,1.67
2022-11-16T10:38:18.473Z,1.50
2022-11-16T10:40:51.027Z,1.57
2022-11-16T10:43:21.688Z,1.43
2022-11-16T10:45:55.817Z,2.03
2022-11-16T10:48:32.476Z,1.10
2022-11-16T10:51:02.606Z,1.60
2022-11-16T10:53:35.116Z,1.87
2022-11-16T10:56:18.534Z,1.27
2022-11-16T10:58:58.308Z,1.43
2022-11-16T11:01:36.279Z,1.73
2022-11-16T11:04:15.110Z,1.67
2022-11-16T11:06:45.398Z,1.67
2022-11-16T11:09:21.463Z,1.30
2022-11-16T11:12:20.349Z,1.60
2022-11-16T11:15:07.737Z,1.37
2022-11-16T11:17:36.935Z,1.70
2022-11-16T11:20:07.094Z,1.50
2022-11-16T11:22:43.739Z,1.70
2022-11-16T11:25:21.193Z,1.47
2022-11-16T11:27:49.158Z,1.87
2022-11-16T11:30:21.034Z,1.93
2022-11-16T11:32:49.487Z,2.30
2022-11-16T11:35:24.715Z,1.73
2022-11-16T11:37:56.343Z,1.80
2022-11-16T11:40:26.069Z,1.63
2022-11-16T11:42:59.541Z,1.87
2022-11-16T11:45:36.335Z,1.80
2022-11-16T11:48:15.385Z,2.00
2022-11-16T11:50:50.311Z,2.10
2022-11-16T11:53:31.232Z,1.80
2022-11-16T11:56:01.062Z,1.40
2022-11-16T11:58:32.208Z,1.53
2022-11-16T12:01:20.730Z,2.83
2022-11-16T12:04:14.352Z,2.70
2022-11-16T12:06:50.190Z,2.03
2022-11-16T12:09:34.824Z,1.60
2022-11-16T12:12:18.388Z,1.90
2022-11-16T12:15:17.925Z,1.37
2022-11-16T12:17:57.811Z,1.20
2022-11-16T12:20:34.377Z,1.50
2022-11-16T12:23:25.174Z,2.23
2022-11-16T12:26:04.136Z,1.47
2022-11-16T12:28:51.244Z,1.70
2022-11-16T12:31:57.583Z,1.80
2022-11-16T12:34:40.412Z,1.67
2022-11-16T12:37:16.820Z,1.33
2022-11-16T12:39:45.778Z,1.80
2022-11-16T12:42:35.376Z,1.80
2022-11-16T12:45:32.415Z,1.83
2022-11-16T12:48:19.838Z,1.23
2022-11-16T12:50:56.760Z,1.37
2022-11-16T12:53:47.433Z,1.70
2022-11-16T12:56:26.215Z,1.50
2022-11-16T12:59:14.005Z,1.27
2022-11-16T13:01:48.488Z,1.50
2022-11-16T13:04:21.984Z,1.50
2022-11-16T13:06:57.085Z,1.60
2022-11-16T13:09:29.672Z,1.20
2022-11-16T13:12:01.753Z,1.60
2022-11-16T13:14:35.209Z,1.30
2022-11-16T13:17:05.279Z,1.20
2022-11-16T13:19:34.644Z,1.33
2022-11-16T13:22:08.482Z,1.60
2022-11-16T13:24:47.932Z,1.40
2022-11-16T13:27:37.351Z,1.90
2022-11-16T13:30:15.987Z,1.00
2022-11-16T13:32:56.887Z,1.10
2022-11-16T13:35:25.079Z,1.63
2022-11-16T13:37:52.851Z,1.60
2022-11-16T13:40:31.964Z,1.80
2022-11-16T13:43:18.965Z,1.17
2022-11-16T13:46:00.199Z,1.70
2022-11-16T13:48:33.485Z,1.67
2022-11-16T13:51:03.887Z,1.43
2022-11-16T13:54:37.771Z,1.50
2022-11-16T13:56:28.578Z,1.23
2022-11-16T13:58:58.346Z,1.50
2022-11-16T14:01:57.560Z,1.93
2022-11-16T14:04:41.736Z,1.50
2022-11-16T14:07:47.126Z,1.80
2022-11-16T14:11:01.004Z,1.30
2022-11-16T14:13:40.243Z,1.30
2022-11-16T14:16:47.551Z,1.20
2022-11-16T14:19:56.227Z,2.00
2022-11-16T14:22:38.834Z,1.13
2022-11-16T14:25:16.554Z,1.43
2022-11-16T14:27:54.674Z,1.27
2022-11-16T14:30:25.803Z,1.17
2022-11-16T14:32:56.081Z,1.53
2022-11-16T14:35:30.648Z,1.20
2022-11-16T14:38:00.252Z,1.57
2022-11-16T14:40:28.553Z,1.30
2022-11-16T14:43:15.831Z,1.57
2022-11-16T14:45:49.220Z,1.33
2022-11-16T14:48:19.460Z,1.10
2022-11-16T14:51:01.701Z,1.80
2022-11-16T14:53:30.793Z,1.47
2022-11-16T14:56:08.271Z,2.00
2022-11-16T14:58:36.871Z,1.77
2022-11-16T15:01:07.014Z,2.00
2022-11-16T15:03:39.850Z,2.20
2022-11-16T15:06:09.885Z,2.20
2022-11-16T15:08:43.937Z,1.63
2022-11-16T15:11:23.392Z,2.30
2022-11-16T15:13:51.662Z,2.10
2022-11-16T15:16:21.585Z,1.87
2022-11-16T15:19:00.445Z,2.23
2022-11-16T15:21:29.832Z,1.57
2022-11-16T15:26:45.215Z,2.20
2022-11-16T15:29:17.835Z,1.77
2022-11-16T15:31:45.769Z,1.37
2022-11-16T15:34:16.887Z,1.73
2022-11-16T15:36:47.315Z,2.13
2022-11-16T15:39:17.946Z,1.77
2022-11-16T15:41:46.936Z,1.87
2022-11-16T15:44:17.392Z,2.77
2022-11-16T15:46:48.585Z,1.73
2022-11-16T15:49:28.453Z,2.07
2022-11-16T15:51:58.413Z,1.47
2022-11-16T15:54:28.660Z,2.47
2022-11-16T15:56:58.515Z,3.70
2022-11-16T15:59:29.119Z,8.10
2022-11-16T16:01:57.656Z,7.30
2022-11-16T16:04:26.844Z,5.03
2022-11-16T16:06:55.819Z,2.87
2022-11-16T16:09:28.083Z,2.37
2022-11-16T16:12:18.123Z,2.00
2022-11-16T16:14:46.738Z,2.00
2022-11-16T16:17:24.034Z,1.73
2022-11-16T16:19:56.540Z,1.90
2022-11-16T16:22:27.238Z,2.43
2022-11-16T16:24:56.802Z,1.90
2022-11-16T16:27:26.212Z,2.23
2022-11-16T16:29:55.565Z,2.43
2022-11-16T16:32:26.196Z,2.13
2022-11-16T16:34:54.889Z,2.03
2022-11-16T16:37:23.318Z,2.47
2022-11-16T16:39:51.003Z,2.10
2022-11-16T16:42:20.094Z,2.30
2022-11-16T16:44:49.030Z,2.40
2022-11-16T16:47:20.561Z,2.13
2022-11-16T16:49:48.307Z,2.77
2022-11-16T16:52:16.272Z,2.17
2022-11-16T16:54:44.377Z,2.53
2022-11-16T16:57:15.863Z,2.13
2022-11-16T16:59:48.051Z,2.23
2022-11-16T17:02:17.136Z,1.80
2022-11-16T17:04:46.658Z,2.17
2022-11-16T17:07:14.564Z,2.23
2022-11-16T17:09:42.307Z,1.90
2022-11-16T17:12:10.743Z,1.97
2022-11-16T17:14:38.453Z,2.67
2022-11-16T17:17:07.452Z,2.07
2022-11-16T17:19:35.063Z,1.90
2022-11-16T17:22:02.830Z,2.83
2022-11-16T17:24:30.630Z,2.30
2022-11-16T17:26:58.485Z,2.37
2022-11-16T17:29:26.307Z,2.40
2022-11-16T17:31:54.109Z,2.17
2022-11-16T17:34:23.450Z,3.53
2022-11-16T17:36:51.282Z,2.27
2022-11-16T17:39:19.187Z,2.30
2022-11-16T17:41:46.834Z,2.40
2022-11-16T17:44:20.131Z,2.53
2022-11-16T17:46:49.159Z,2.50
2022-11-16T17:49:16.855Z,2.33
2022-11-16T17:51:45.868Z,2.37
2022-11-16T17:54:13.602Z,2.50
2022-11-16T17:56:41.335Z,2.50
2022-11-16T17:59:09.188Z,2.30
2022-11-16T18:01:37.013Z,2.60
2022-11-16T18:04:05.027Z,2.70
2022-11-16T18:06:33.181Z,3.27
2022-11-16T18:09:02.550Z,3.57
2022-11-16T18:11:33.295Z,2.60
2022-11-16T18:14:05.545Z,3.67
2022-11-16T18:16:35.111Z,2.85
2022-11-16T18:19:04.264Z,3.37
2022-11-16T18:21:33.701Z,3.40
2022-11-16T18:24:02.764Z,3.10
2022-11-16T18:26:30.390Z,6.75
2022-11-16T18:28:58.046Z,5.73
2022-11-16T18:31:26.025Z,3.63
2022-11-16T18:33:53.736Z,3.73
2022-11-16T18:36:22.556Z,3.00
2022-11-16T18:38:50.518Z,2.75
2022-11-16T18:41:21.810Z,3.00
2022-11-16T18:43:51.627Z,3.03
2022-11-16T18:46:19.878Z,2.55
2022-11-16T18:48:47.810Z,3.10
2022-11-16T18:51:16.270Z,2.47
2022-11-16T18:53:44.010Z,2.42
2022-11-16T18:56:12.456Z,2.92
2022-11-16T18:58:51.008Z,2.50
2022-11-16T19:01:22.718Z,2.60
2022-11-16T19:03:50.872Z,4.78
2022-11-16T19:06:19.533Z,4.50
2022-11-16T19:08:54.042Z,5.60
2022-11-16T19:11:24.348Z,5.15
2022-11-16T19:13:55.848Z,5.70
2022-11-16T19:16:24.820Z,5.32
2022-11-16T19:18:52.808Z,4.82
2022-11-16T19:21:21.820Z,5.38
2022-11-16T19:23:51.211Z,6.13
2022-11-16T19:26:20.466Z,4.57
2022-11-16T19:28:50.020Z,4.38
2022-11-16T19:31:21.268Z,4.18
2022-11-16T19:33:49.483Z,3.42
2022-11-16T19:36:19.224Z,3.88
2022-11-16T19:38:49.653Z,3.63
2022-11-16T19:41:20.140Z,3.65
2022-11-16T19:43:48.073Z,3.75
2022-11-16T19:46:17.390Z,3.55
2022-11-16T19:48:47.092Z,4.40
2022-11-16T19:51:16.990Z,3.55
2022-11-16T19:53:44.721Z,3.75
2022-11-16T19:56:14.059Z,3.90
2022-11-16T19:58:42.140Z,3.17
2022-11-16T20:01:13.444Z,4.20
2022-11-16T20:03:41.949Z,3.50
2022-11-16T20:06:13.554Z,3.60
2022-11-16T20:08:42.792Z,3.63
2022-11-16T20:11:11.875Z,3.50
2022-11-16T20:13:39.640Z,4.55
2022-11-16T20:16:09.513Z,3.42
2022-11-16T20:18:37.188Z,3.20
2022-11-16T20:21:06.217Z,2.88
2022-11-16T20:23:37.471Z,2.90
2022-11-16T20:26:06.412Z,3.40
2022-11-16T20:28:37.628Z,3.65
2022-11-16T20:31:09.288Z,3.08
2022-11-16T20:33:37.272Z,2.53
2022-11-16T20:36:06.963Z,2.90
2022-11-16T20:38:37.267Z,3.05
2022-11-16T20:41:09.536Z,2.72
2022-11-16T20:43:39.173Z,3.00
2022-11-16T20:46:07.236Z,3.43
2022-11-16T20:48:34.842Z,2.60
2022-11-16T20:51:02.847Z,2.73
2022-11-16T20:53:30.471Z,2.15
2022-11-16T20:56:02.286Z,2.17
2022-11-16T20:58:29.992Z,2.20
2022-11-16T21:01:00.659Z,2.50
2022-11-16T21:03:28.750Z,3.03
2022-11-16T21:05:56.717Z,2.70
2022-11-16T21:08:25.463Z,2.40
2022-11-16T21:10:53.438Z,2.87
2022-11-16T21:13:40.339Z,2.50
2022-11-16T21:16:11.299Z,2.60
2022-11-16T21:18:39.497Z,2.70
2022-11-16T21:21:08.955Z,2.38
2022-11-16T21:23:37.585Z,2.53
2022-11-16T21:26:07.205Z,1.93
2022-11-16T21:28:36.185Z,3.00
2022-11-16T21:31:05.752Z,3.53
2022-11-16T21:33:34.085Z,2.60
2022-11-16T21:36:04.554Z,3.00
2022-11-16T21:38:32.923Z,3.15
2022-11-16T21:41:01.052Z,2.80
2022-11-16T21:43:29.093Z,2.63
2022-11-16T21:46:03.174Z,2.83
2022-11-16T21:48:32.791Z,2.90
2022-11-16T21:51:01.440Z,2.70
2022-11-16T21:53:29.067Z,3.17
2022-11-16T21:55:56.799Z,2.80
2022-11-16T21:58:24.577Z,3.27
2022-11-16T22:00:55.127Z,2.37
2022-11-16T22:03:24.466Z,3.40
2022-11-16T22:06:13.646Z,2.13
2022-11-16T22:08:41.565Z,2.50
2022-11-16T22:11:09.736Z,2.67
2022-11-16T22:13:39.007Z,2.40
2022-11-16T22:16:07.543Z,2.23
2022-11-16T22:18:37.083Z,2.57
2022-11-16T22:21:05.874Z,2.17
2022-11-16T22:23:34.539Z,2.10
2022-11-16T22:26:03.866Z,2.60
2022-11-16T22:28:31.668Z,2.50
2022-11-16T22:31:03.342Z,2.17
2022-11-16T22:33:31.568Z,2.70
2022-11-16T22:36:00.676Z,2.20
2022-11-16T22:38:28.584Z,2.90
2022-11-16T22:40:57.742Z,3.40
2022-11-16T22:43:27.090Z,2.73
2022-11-16T22:45:58.613Z,2.43
2022-11-16T22:48:30.291Z,2.23
2022-11-16T22:51:05.391Z,3.20
2022-11-16T22:53:33.486Z,4.10
2022-11-16T22:56:08.837Z,2.33
2022-11-16T22:58:37.230Z,2.07
2022-11-16T23:01:05.956Z,3.23
2022-11-16T23:03:34.427Z,2.80
2022-11-16T23:06:04.574Z,2.60
2022-11-16T23:08:32.932Z,3.40
2022-11-16T23:11:19.413Z,2.77
2022-11-16T23:14:05.078Z,3.87
2022-11-16T23:16:32.853Z,5.10
2022-11-16T23:19:00.766Z,2.40
2022-11-16T23:21:47.521Z,2.43
2022-11-16T23:24:34.149Z,2.37
2022-11-16T23:27:22.582Z,2.70
2022-11-16T23:29:50.558Z,2.72
2022-11-16T23:32:18.287Z,3.00
2022-11-16T23:34:45.891Z,3.08
2022-11-16T23:37:14.920Z,2.83
2022-11-16T23:39:42.624Z,2.40
2022-11-16T23:42:29.059Z,2.87
2022-11-16T23:44:56.799Z,2.78
2022-11-16T23:47:25.113Z,3.60
2022-11-16T23:49:52.842Z,2.47
2022-11-16T23:52:21.998Z,2.80
2022-11-16T23:54:49.804Z,2.63
2022-11-16T23:57:17.542Z,3.13
2022-11-16T23:59:45.322Z,2.37
